sensor_id;sensor_type;location;lat;lon;timestamp;P1;durP1;ratioP1;P2;durP2;ratioP2
14167;SDS011;7163;50.626;12.922;2023-07-31T00:02:40;6.97;;;2.70;;
14167;SDS011;7163;50.626;12.922;2023-07-31T00:07:45;5.90;;;2.90;;
14167;SDS011;7163;50.626;12.922;2023-07-31T00:12:45;6.53;;;3.00;;
14167;SDS011;7163;50.626;12.922;2023-07-31T00:17:46;8.87;;;2.90;;
14167;SDS011;7163;50.626;12.922;2023-07-31T00:22:47;8.70;;;3.37;;
14167;SDS011;7163;50.626;12.922;2023-07-31T00:27:48;8.97;;;2.73;;
14167;SDS011;7163;50.626;12.922;2023-07-31T00:32:48;6.90;;;2.40;;
14167;SDS011;7163;50.626;12.922;2023-07-31T00:37:49;5.03;;;2.40;;
14167;SDS011;7163;50.626;12.922;2023-07-31T00:42:50;7.87;;;2.80;;
14167;SDS011;7163;50.626;12.922;2023-07-31T00:47:50;4.10;;;2.50;;
14167;SDS011;7163;50.626;12.922;2023-07-31T00:52:50;7.20;;;2.60;;
14167;SDS011;7163;50.626;12.922;2023-07-31T00:57:51;6.00;;;2.43;;
14167;SDS011;7163;50.626;12.922;2023-07-31T01:02:52;8.00;;;2.70;;
14167;SDS011;7163;50.626;12.922;2023-07-31T01:07:56;8.13;;;2.50;;
14167;SDS011;7163;50.626;12.922;2023-07-31T01:13:13;10.00;;;2.50;;
14167;SDS011;7163;50.626;12.922;2023-07-31T01:18:14;7.87;;;2.83;;
14167;SDS011;7163;50.626;12.922;2023-07-31T01:33:50;6.50;;;2.20;;
14167;SDS011;7163;50.626;12.922;2023-07-31T01:38:57;10.23;;;3.17;;
14167;SDS011;7163;50.626;12.922;2023-07-31T01:43:59;5.23;;;2.73;;
14167;SDS011;7163;50.626;12.922;2023-07-31T01:48:59;8.00;;;2.37;;
14167;SDS011;7163;50.626;12.922;2023-07-31T01:54:00;4.13;;;2.53;;
14167;SDS011;7163;50.626;12.922;2023-07-31T01:59:01;7.17;;;2.80;;
14167;SDS011;7163;50.626;12.922;2023-07-31T02:04:03;9.13;;;3.17;;
14167;SDS011;7163;50.626;12.922;2023-07-31T02:09:04;5.87;;;2.47;;
14167;SDS011;7163;50.626;12.922;2023-07-31T02:14:05;8.07;;;2.70;;
14167;SDS011;7163;50.626;12.922;2023-07-31T02:19:05;8.93;;;3.27;;
14167;SDS011;7163;50.626;12.922;2023-07-31T02:24:06;7.37;;;3.20;;
14167;SDS011;7163;50.626;12.922;2023-07-31T02:29:06;7.97;;;3.10;;
14167;SDS011;7163;50.626;12.922;2023-07-31T02:34:07;7.37;;;3.20;;
14167;SDS011;7163;50.626;12.922;2023-07-31T02:39:07;8.10;;;3.57;;
14167;SDS011;7163;50.626;12.922;2023-07-31T02:44:14;8.90;;;3.50;;
14167;SDS011;7163;50.626;12.922;2023-07-31T02:49:14;10.97;;;4.40;;
14167;SDS011;7163;50.626;12.922;2023-07-31T02:54:27;10.30;;;3.80;;
14167;SDS011;7163;50.626;12.922;2023-07-31T02:59:28;10.77;;;4.03;;
14167;SDS011;7163;50.626;12.922;2023-07-31T03:04:29;12.10;;;4.27;;
14167;SDS011;7163;50.626;12.922;2023-07-31T03:09:29;7.00;;;4.00;;
14167;SDS011;7163;50.626;12.922;2023-07-31T03:14:30;12.07;;;4.83;;
14167;SDS011;7163;50.626;12.922;2023-07-31T03:19:38;7.63;;;4.47;;
14167;SDS011;7163;50.626;12.922;2023-07-31T03:24:38;12.60;;;4.73;;
14167;SDS011;7163;50.626;12.922;2023-07-31T03:29:45;10.57;;;5.07;;
14167;SDS011;7163;50.626;12.922;2023-07-31T03:34:45;12.20;;;4.90;;
14167;SDS011;7163;50.626;12.922;2023-07-31T03:39:45;8.73;;;4.60;;
14167;SDS011;7163;50.626;12.922;2023-07-31T03:44:55;12.83;;;5.40;;
14167;SDS011;7163;50.626;12.922;2023-07-31T03:49:55;11.23;;;5.07;;
14167;SDS011;7163;50.626;12.922;2023-07-31T03:55:02;12.23;;;5.40;;
14167;SDS011;7163;50.626;12.922;2023-07-31T04:00:09;9.30;;;5.03;;
14167;SDS011;7163;50.626;12.922;2023-07-31T04:05:19;10.47;;;4.80;;
14167;SDS011;7163;50.626;12.922;2023-07-31T04:10:20;13.63;;;5.67;;
14167;SDS011;7163;50.626;12.922;2023-07-31T04:15:20;18.37;;;6.53;;
14167;SDS011;7163;50.626;12.922;2023-07-31T04:20:27;14.67;;;5.77;;
14167;SDS011;7163;50.626;12.922;2023-07-31T04:25:27;13.17;;;5.60;;
14167;SDS011;7163;50.626;12.922;2023-07-31T04:30:28;12.13;;;5.47;;
14167;SDS011;7163;50.626;12.922;2023-07-31T04:35:31;11.10;;;4.80;;
14167;SDS011;7163;50.626;12.922;2023-07-31T04:40:32;15.70;;;4.83;;
14167;SDS011;7163;50.626;12.922;2023-07-31T04:45:48;12.30;;;4.90;;
14167;SDS011;7163;50.626;12.922;2023-07-31T04:50:48;11.43;;;4.93;;
14167;SDS011;7163;50.626;12.922;2023-07-31T04:55:49;9.33;;;3.97;;
14167;SDS011;7163;50.626;12.922;2023-07-31T05:00:55;9.17;;;4.47;;
14167;SDS011;7163;50.626;12.922;2023-07-31T05:06:14;10.80;;;4.30;;
14167;SDS011;7163;50.626;12.922;2023-07-31T05:11:31;12.80;;;4.97;;
14167;SDS011;7163;50.626;12.922;2023-07-31T05:16:31;12.30;;;4.50;;
14167;SDS011;7163;50.626;12.922;2023-07-31T05:21:32;14.03;;;4.90;;
14167;SDS011;7163;50.626;12.922;2023-07-31T05:26:36;8.57;;;4.37;;
14167;SDS011;7163;50.626;12.922;2023-07-31T05:37:14;9.77;;;4.97;;
14167;SDS011;7163;50.626;12.922;2023-07-31T05:42:18;16.40;;;4.80;;
14167;SDS011;7163;50.626;12.922;2023-07-31T05:47:48;6.93;;;4.23;;
14167;SDS011;7163;50.626;12.922;2023-07-31T05:52:48;9.20;;;4.13;;
14167;SDS011;7163;50.626;12.922;2023-07-31T05:57:49;14.30;;;4.60;;
14167;SDS011;7163;50.626;12.922;2023-07-31T06:02:49;8.93;;;4.23;;
14167;SDS011;7163;50.626;12.922;2023-07-31T06:07:56;11.33;;;4.10;;
14167;SDS011;7163;50.626;12.922;2023-07-31T06:12:57;9.23;;;4.17;;
14167;SDS011;7163;50.626;12.922;2023-07-31T06:17:57;12.63;;;4.27;;
14167;SDS011;7163;50.626;12.922;2023-07-31T06:22:58;8.23;;;3.77;;
14167;SDS011;7163;50.626;12.922;2023-07-31T06:27:58;8.57;;;4.07;;
14167;SDS011;7163;50.626;12.922;2023-07-31T06:32:59;10.93;;;4.83;;
14167;SDS011;7163;50.626;12.922;2023-07-31T06:38:01;10.53;;;3.80;;
14167;SDS011;7163;50.626;12.922;2023-07-31T06:43:03;11.50;;;4.33;;
14167;SDS011;7163;50.626;12.922;2023-07-31T06:48:09;10.40;;;3.77;;
14167;SDS011;7163;50.626;12.922;2023-07-31T06:53:10;7.60;;;3.30;;
14167;SDS011;7163;50.626;12.922;2023-07-31T06:58:10;10.80;;;4.00;;
14167;SDS011;7163;50.626;12.922;2023-07-31T07:03:11;8.67;;;3.50;;
14167;SDS011;7163;50.626;12.922;2023-07-31T07:08:12;5.87;;;3.60;;
14167;SDS011;7163;50.626;12.922;2023-07-31T07:13:12;7.20;;;3.30;;
14167;SDS011;7163;50.626;12.922;2023-07-31T07:18:13;9.83;;;3.97;;
14167;SDS011;7163;50.626;12.922;2023-07-31T07:23:14;6.93;;;3.57;;
14167;SDS011;7163;50.626;12.922;2023-07-31T07:28:14;7.80;;;3.47;;
14167;SDS011;7163;50.626;12.922;2023-07-31T07:33:15;7.83;;;3.13;;
14167;SDS011;7163;50.626;12.922;2023-07-31T07:38:15;5.57;;;3.27;;
14167;SDS011;7163;50.626;12.922;2023-07-31T07:43:16;10.67;;;2.87;;
14167;SDS011;7163;50.626;12.922;2023-07-31T07:48:17;6.93;;;3.57;;
14167;SDS011;7163;50.626;12.922;2023-07-31T07:53:17;12.80;;;3.70;;
14167;SDS011;7163;50.626;12.922;2023-07-31T07:58:18;8.80;;;3.43;;
14167;SDS011;7163;50.626;12.922;2023-07-31T08:03:18;7.37;;;3.27;;
14167;SDS011;7163;50.626;12.922;2023-07-31T08:08:19;8.50;;;3.40;;
14167;SDS011;7163;50.626;12.922;2023-07-31T08:13:20;5.53;;;3.17;;
14167;SDS011;7163;50.626;12.922;2023-07-31T08:18:20;6.53;;;3.53;;
14167;SDS011;7163;50.626;12.922;2023-07-31T08:23:21;6.93;;;3.10;;
14167;SDS011;7163;50.626;12.922;2023-07-31T08:28:21;7.40;;;3.10;;
14167;SDS011;7163;50.626;12.922;2023-07-31T08:33:22;9.00;;;3.13;;
14167;SDS011;7163;50.626;12.922;2023-07-31T08:38:22;5.63;;;3.10;;
14167;SDS011;7163;50.626;12.922;2023-07-31T08:43:25;6.27;;;3.20;;
14167;SDS011;7163;50.626;12.922;2023-07-31T08:48:26;10.30;;;3.27;;
14167;SDS011;7163;50.626;12.922;2023-07-31T08:53:28;8.17;;;3.63;;
14167;SDS011;7163;50.626;12.922;2023-07-31T08:58:31;5.50;;;3.57;;
14167;SDS011;7163;50.626;12.922;2023-07-31T09:03:33;8.37;;;3.70;;
14167;SDS011;7163;50.626;12.922;2023-07-31T09:08:35;9.43;;;3.37;;
14167;SDS011;7163;50.626;12.922;2023-07-31T09:13:38;8.87;;;3.57;;
14167;SDS011;7163;50.626;12.922;2023-07-31T09:18:53;7.13;;;3.80;;
14167;SDS011;7163;50.626;12.922;2023-07-31T09:23:55;8.80;;;3.70;;
14167;SDS011;7163;50.626;12.922;2023-07-31T09:28:56;9.57;;;2.87;;
14167;SDS011;7163;50.626;12.922;2023-07-31T09:33:57;6.77;;;3.30;;
14167;SDS011;7163;50.626;12.922;2023-07-31T09:39:07;5.80;;;3.10;;
14167;SDS011;7163;50.626;12.922;2023-07-31T09:44:09;6.15;;;3.05;;
14167;SDS011;7163;50.626;12.922;2023-07-31T09:49:10;5.85;;;2.53;;
14167;SDS011;7163;50.626;12.922;2023-07-31T09:54:12;6.45;;;2.83;;
14167;SDS011;7163;50.626;12.922;2023-07-31T09:59:20;7.70;;;3.10;;
14167;SDS011;7163;50.626;12.922;2023-07-31T10:04:21;5.30;;;3.00;;
14167;SDS011;7163;50.626;12.922;2023-07-31T10:09:25;6.88;;;2.63;;
14167;SDS011;7163;50.626;12.922;2023-07-31T10:14:31;8.80;;;2.95;;
14167;SDS011;7163;50.626;12.922;2023-07-31T10:19:32;6.03;;;2.50;;
14167;SDS011;7163;50.626;12.922;2023-07-31T10:24:33;4.78;;;2.60;;
14167;SDS011;7163;50.626;12.922;2023-07-31T10:29:34;5.97;;;2.72;;
14167;SDS011;7163;50.626;12.922;2023-07-31T10:34:34;4.75;;;2.15;;
14167;SDS011;7163;50.626;12.922;2023-07-31T10:39:36;6.70;;;2.50;;
14167;SDS011;7163;50.626;12.922;2023-07-31T10:44:38;6.03;;;2.50;;
14167;SDS011;7163;50.626;12.922;2023-07-31T10:49:46;6.43;;;2.72;;
14167;SDS011;7163;50.626;12.922;2023-07-31T10:54:47;5.20;;;2.35;;
14167;SDS011;7163;50.626;12.922;2023-07-31T10:59:48;6.93;;;2.88;;
14167;SDS011;7163;50.626;12.922;2023-07-31T11:05:05;6.15;;;3.08;;
14167;SDS011;7163;50.626;12.922;2023-07-31T11:10:07;6.20;;;3.22;;
14167;SDS011;7163;50.626;12.922;2023-07-31T11:15:08;4.93;;;2.35;;
14167;SDS011;7163;50.626;12.922;2023-07-31T11:20:10;5.93;;;2.30;;
14167;SDS011;7163;50.626;12.922;2023-07-31T11:25:10;8.88;;;2.60;;
14167;SDS011;7163;50.626;12.922;2023-07-31T11:30:11;2.67;;;1.92;;
14167;SDS011;7163;50.626;12.922;2023-07-31T11:35:14;4.07;;;2.30;;
14167;SDS011;7163;50.626;12.922;2023-07-31T11:40:14;3.83;;;2.22;;
14167;SDS011;7163;50.626;12.922;2023-07-31T11:45:15;4.70;;;2.28;;
14167;SDS011;7163;50.626;12.922;2023-07-31T11:50:15;4.80;;;2.33;;
14167;SDS011;7163;50.626;12.922;2023-07-31T11:55:16;4.85;;;2.42;;
14167;SDS011;7163;50.626;12.922;2023-07-31T12:00:17;8.32;;;2.40;;
14167;SDS011;7163;50.626;12.922;2023-07-31T12:05:18;5.72;;;2.38;;
14167;SDS011;7163;50.626;12.922;2023-07-31T12:10:25;5.10;;;2.35;;
14167;SDS011;7163;50.626;12.922;2023-07-31T12:15:32;5.10;;;2.25;;
14167;SDS011;7163;50.626;12.922;2023-07-31T12:21:00;5.75;;;2.33;;
14167;SDS011;7163;50.626;12.922;2023-07-31T12:26:08;6.63;;;3.05;;
14167;SDS011;7163;50.626;12.922;2023-07-31T12:31:10;4.75;;;2.50;;
14167;SDS011;7163;50.626;12.922;2023-07-31T12:36:12;4.22;;;2.40;;
14167;SDS011;7163;50.626;12.922;2023-07-31T12:41:14;3.80;;;2.50;;
14167;SDS011;7163;50.626;12.922;2023-07-31T12:46:14;4.95;;;2.63;;
14167;SDS011;7163;50.626;12.922;2023-07-31T12:51:16;4.47;;;2.60;;
14167;SDS011;7163;50.626;12.922;2023-07-31T12:56:16;6.43;;;2.95;;
14167;SDS011;7163;50.626;12.922;2023-07-31T13:01:17;8.35;;;2.47;;
14167;SDS011;7163;50.626;12.922;2023-07-31T13:06:18;3.47;;;2.40;;
14167;SDS011;7163;50.626;12.922;2023-07-31T13:11:18;5.70;;;3.03;;
14167;SDS011;7163;50.626;12.922;2023-07-31T13:16:19;5.18;;;2.80;;
14167;SDS011;7163;50.626;12.922;2023-07-31T13:21:19;7.57;;;3.20;;
14167;SDS011;7163;50.626;12.922;2023-07-31T13:26:21;6.07;;;3.78;;
14167;SDS011;7163;50.626;12.922;2023-07-31T13:31:22;4.85;;;2.83;;
14167;SDS011;7163;50.626;12.922;2023-07-31T13:36:23;4.32;;;2.65;;
14167;SDS011;7163;50.626;12.922;2023-07-31T13:41:24;4.65;;;2.67;;
14167;SDS011;7163;50.626;12.922;2023-07-31T13:46:24;4.75;;;2.53;;
14167;SDS011;7163;50.626;12.922;2023-07-31T13:51:25;6.88;;;2.50;;
14167;SDS011;7163;50.626;12.922;2023-07-31T13:56:27;5.10;;;2.85;;
14167;SDS011;7163;50.626;12.922;2023-07-31T14:01:28;6.28;;;2.40;;
14167;SDS011;7163;50.626;12.922;2023-07-31T14:06:28;8.25;;;2.90;;
14167;SDS011;7163;50.626;12.922;2023-07-31T14:11:30;7.03;;;2.90;;
14167;SDS011;7163;50.626;12.922;2023-07-31T14:16:31;5.78;;;2.72;;
14167;SDS011;7163;50.626;12.922;2023-07-31T14:21:32;4.15;;;2.83;;
14167;SDS011;7163;50.626;12.922;2023-07-31T14:26:33;5.68;;;2.70;;
14167;SDS011;7163;50.626;12.922;2023-07-31T14:31:33;6.10;;;3.10;;
14167;SDS011;7163;50.626;12.922;2023-07-31T14:36:34;5.63;;;3.20;;
14167;SDS011;7163;50.626;12.922;2023-07-31T14:41:34;5.78;;;3.05;;
14167;SDS011;7163;50.626;12.922;2023-07-31T14:46:34;4.85;;;2.72;;
14167;SDS011;7163;50.626;12.922;2023-07-31T14:51:35;4.47;;;2.50;;
14167;SDS011;7163;50.626;12.922;2023-07-31T14:56:35;4.10;;;2.60;;
14167;SDS011;7163;50.626;12.922;2023-07-31T15:01:35;6.95;;;3.30;;
14167;SDS011;7163;50.626;12.922;2023-07-31T15:06:36;6.38;;;3.05;;
14167;SDS011;7163;50.626;12.922;2023-07-31T15:11:36;3.53;;;2.35;;
14167;SDS011;7163;50.626;12.922;2023-07-31T15:16:42;4.53;;;2.80;;
14167;SDS011;7163;50.626;12.922;2023-07-31T15:21:42;7.00;;;2.83;;
14167;SDS011;7163;50.626;12.922;2023-07-31T15:26:43;7.95;;;3.42;;
14167;SDS011;7163;50.626;12.922;2023-07-31T15:31:43;9.35;;;3.53;;
14167;SDS011;7163;50.626;12.922;2023-07-31T15:36:44;10.38;;;3.10;;
14167;SDS011;7163;50.626;12.922;2023-07-31T15:41:45;5.53;;;3.15;;
14167;SDS011;7163;50.626;12.922;2023-07-31T15:46:45;6.18;;;3.20;;
14167;SDS011;7163;50.626;12.922;2023-07-31T15:51:45;8.27;;;3.67;;
14167;SDS011;7163;50.626;12.922;2023-07-31T15:56:47;7.53;;;3.45;;
14167;SDS011;7163;50.626;12.922;2023-07-31T16:01:47;5.93;;;3.92;;
14167;SDS011;7163;50.626;12.922;2023-07-31T16:06:48;10.00;;;5.50;;
14167;SDS011;7163;50.626;12.922;2023-07-31T16:11:48;7.20;;;4.40;;
14167;SDS011;7163;50.626;12.922;2023-07-31T16:16:49;9.75;;;3.90;;
14167;SDS011;7163;50.626;12.922;2023-07-31T16:21:49;6.82;;;3.22;;
14167;SDS011;7163;50.626;12.922;2023-07-31T16:26:50;6.35;;;3.20;;
14167;SDS011;7163;50.626;12.922;2023-07-31T16:31:50;7.88;;;3.95;;
14167;SDS011;7163;50.626;12.922;2023-07-31T16:36:51;8.27;;;3.90;;
14167;SDS011;7163;50.626;12.922;2023-07-31T16:41:51;9.75;;;4.43;;
14167;SDS011;7163;50.626;12.922;2023-07-31T16:46:52;6.50;;;3.60;;
14167;SDS011;7163;50.626;12.922;2023-07-31T16:51:53;7.47;;;3.80;;
14167;SDS011;7163;50.626;12.922;2023-07-31T16:56:53;8.27;;;4.20;;
14167;SDS011;7163;50.626;12.922;2023-07-31T17:01:54;7.30;;;3.25;;
14167;SDS011;7163;50.626;12.922;2023-07-31T17:06:56;8.07;;;3.70;;
14167;SDS011;7163;50.626;12.922;2023-07-31T17:11:56;9.65;;;3.67;;
14167;SDS011;7163;50.626;12.922;2023-07-31T17:16:57;7.15;;;3.70;;
14167;SDS011;7163;50.626;12.922;2023-07-31T17:21:57;6.88;;;3.63;;
14167;SDS011;7163;50.626;12.922;2023-07-31T17:26:58;5.35;;;3.40;;
14167;SDS011;7163;50.626;12.922;2023-07-31T17:31:58;8.73;;;3.42;;
14167;SDS011;7163;50.626;12.922;2023-07-31T17:36:59;6.78;;;3.40;;
14167;SDS011;7163;50.626;12.922;2023-07-31T17:42:00;10.23;;;4.30;;
14167;SDS011;7163;50.626;12.922;2023-07-31T17:47:00;6.13;;;3.58;;
14167;SDS011;7163;50.626;12.922;2023-07-31T17:52:01;8.15;;;3.65;;
14167;SDS011;7163;50.626;12.922;2023-07-31T17:57:02;6.90;;;3.45;;
14167;SDS011;7163;50.626;12.922;2023-07-31T18:02:03;8.52;;;3.53;;
14167;SDS011;7163;50.626;12.922;2023-07-31T18:07:04;7.63;;;3.75;;
14167;SDS011;7163;50.626;12.922;2023-07-31T18:12:04;7.85;;;3.65;;
14167;SDS011;7163;50.626;12.922;2023-07-31T18:17:05;9.25;;;3.95;;
14167;SDS011;7163;50.626;12.922;2023-07-31T18:22:06;7.38;;;3.78;;
14167;SDS011;7163;50.626;12.922;2023-07-31T18:27:06;9.55;;;4.00;;
14167;SDS011;7163;50.626;12.922;2023-07-31T18:32:07;7.60;;;4.20;;
14167;SDS011;7163;50.626;12.922;2023-07-31T18:37:11;10.00;;;3.97;;
14167;SDS011;7163;50.626;12.922;2023-07-31T18:42:11;9.75;;;4.28;;
14167;SDS011;7163;50.626;12.922;2023-07-31T18:47:12;6.78;;;4.15;;
14167;SDS011;7163;50.626;12.922;2023-07-31T18:52:13;7.90;;;3.90;;
14167;SDS011;7163;50.626;12.922;2023-07-31T18:57:13;7.73;;;3.50;;
14167;SDS011;7163;50.626;12.922;2023-07-31T19:02:14;11.13;;;4.37;;
14167;SDS011;7163;50.626;12.922;2023-07-31T19:07:14;9.90;;;4.37;;
14167;SDS011;7163;50.626;12.922;2023-07-31T19:12:14;8.10;;;4.57;;
14167;SDS011;7163;50.626;12.922;2023-07-31T19:17:15;9.20;;;3.80;;
14167;SDS011;7163;50.626;12.922;2023-07-31T19:22:15;9.57;;;4.30;;
14167;SDS011;7163;50.626;12.922;2023-07-31T19:27:18;9.03;;;4.40;;
14167;SDS011;7163;50.626;12.922;2023-07-31T19:32:18;8.33;;;4.30;;
14167;SDS011;7163;50.626;12.922;2023-07-31T19:37:19;9.17;;;3.60;;
14167;SDS011;7163;50.626;12.922;2023-07-31T19:42:19;8.70;;;3.93;;
14167;SDS011;7163;50.626;12.922;2023-07-31T19:47:20;5.97;;;3.73;;
14167;SDS011;7163;50.626;12.922;2023-07-31T19:52:20;9.13;;;4.00;;
14167;SDS011;7163;50.626;12.922;2023-07-31T19:57:21;10.00;;;4.23;;
14167;SDS011;7163;50.626;12.922;2023-07-31T20:02:21;8.67;;;3.77;;
14167;SDS011;7163;50.626;12.922;2023-07-31T20:07:22;6.10;;;3.63;;
14167;SDS011;7163;50.626;12.922;2023-07-31T20:12:22;7.80;;;4.10;;
14167;SDS011;7163;50.626;12.922;2023-07-31T20:17:25;8.00;;;4.37;;
14167;SDS011;7163;50.626;12.922;2023-07-31T20:22:27;8.33;;;3.90;;
14167;SDS011;7163;50.626;12.922;2023-07-31T20:27:28;8.60;;;4.10;;
14167;SDS011;7163;50.626;12.922;2023-07-31T20:32:28;7.73;;;4.20;;
14167;SDS011;7163;50.626;12.922;2023-07-31T20:37:28;7.77;;;4.23;;
14167;SDS011;7163;50.626;12.922;2023-07-31T20:42:29;7.47;;;3.60;;
14167;SDS011;7163;50.626;12.922;2023-07-31T20:47:29;8.20;;;3.90;;
14167;SDS011;7163;50.626;12.922;2023-07-31T20:52:30;9.77;;;3.53;;
14167;SDS011;7163;50.626;12.922;2023-07-31T20:57:30;9.87;;;3.63;;
14167;SDS011;7163;50.626;12.922;2023-07-31T21:02:31;9.17;;;3.93;;
14167;SDS011;7163;50.626;12.922;2023-07-31T21:07:31;8.33;;;4.03;;
14167;SDS011;7163;50.626;12.922;2023-07-31T21:12:32;8.07;;;3.67;;
14167;SDS011;7163;50.626;12.922;2023-07-31T21:17:32;6.67;;;4.10;;
14167;SDS011;7163;50.626;12.922;2023-07-31T21:22:32;8.27;;;4.03;;
14167;SDS011;7163;50.626;12.922;2023-07-31T21:27:33;8.00;;;4.50;;
14167;SDS011;7163;50.626;12.922;2023-07-31T21:32:33;10.73;;;4.17;;
14167;SDS011;7163;50.626;12.922;2023-07-31T21:37:34;8.43;;;4.37;;
14167;SDS011;7163;50.626;12.922;2023-07-31T21:42:36;11.43;;;4.30;;
14167;SDS011;7163;50.626;12.922;2023-07-31T21:47:37;12.93;;;5.30;;
14167;SDS011;7163;50.626;12.922;2023-07-31T21:52:37;10.57;;;5.20;;
14167;SDS011;7163;50.626;12.922;2023-07-31T21:57:39;10.93;;;5.07;;
14167;SDS011;7163;50.626;12.922;2023-07-31T22:02:39;11.60;;;5.63;;
14167;SDS011;7163;50.626;12.922;2023-07-31T22:07:40;11.40;;;5.60;;
14167;SDS011;7163;50.626;12.922;2023-07-31T22:12:41;9.33;;;5.20;;
14167;SDS011;7163;50.626;12.922;2023-07-31T22:17:42;13.77;;;5.23;;
14167;SDS011;7163;50.626;12.922;2023-07-31T22:22:43;10.87;;;5.27;;
14167;SDS011;7163;50.626;12.922;2023-07-31T22:27:43;7.23;;;4.63;;
14167;SDS011;7163;50.626;12.922;2023-07-31T22:32:44;12.50;;;4.77;;
14167;SDS011;7163;50.626;12.922;2023-07-31T22:37:44;8.27;;;4.40;;
14167;SDS011;7163;50.626;12.922;2023-07-31T22:42:44;14.97;;;5.70;;
14167;SDS011;7163;50.626;12.922;2023-07-31T22:47:45;13.53;;;5.33;;
14167;SDS011;7163;50.626;12.922;2023-07-31T22:52:46;8.53;;;4.93;;
14167;SDS011;7163;50.626;12.922;2023-07-31T22:57:48;7.93;;;4.70;;
14167;SDS011;7163;50.626;12.922;2023-07-31T23:02:50;9.57;;;5.20;;
14167;SDS011;7163;50.626;12.922;2023-07-31T23:07:53;8.50;;;4.80;;
14167;SDS011;7163;50.626;12.922;2023-07-31T23:12:54;7.87;;;4.80;;
14167;SDS011;7163;50.626;12.922;2023-07-31T23:17:54;8.57;;;5.30;;
14167;SDS011;7163;50.626;12.922;2023-07-31T23:22:55;11.03;;;4.83;;
14167;SDS011;7163;50.626;12.922;2023-07-31T23:27:56;12.00;;;4.87;;
14167;SDS011;7163;50.626;12.922;2023-07-31T23:32:56;12.03;;;4.70;;
14167;SDS011;7163;50.626;12.922;2023-07-31T23:37:57;10.97;;;4.73;;
14167;SDS011;7163;50.626;12.922;2023-07-31T23:42:57;9.83;;;4.83;;
14167;SDS011;7163;50.626;12.922;2023-07-31T23:47:58;11.13;;;4.80;;
14167;SDS011;7163;50.626;12.922;2023-07-31T23:53:00;11.37;;;5.30;;
14167;SDS011;7163;50.626;12.922;2023-07-31T23:58:00;9.47;;;5.17;;
